createdAt,value
2018-02-27T00:01:07.457Z,7.62
2018-02-27T00:03:33.704Z,6.45
2018-02-27T00:05:59.911Z,7.18
2018-02-27T00:08:26.151Z,8.20
2018-02-27T00:10:52.373Z,7.20
2018-02-27T00:13:18.583Z,7.62
2018-02-27T00:15:44.827Z,7.57
2018-02-27T00:18:11.043Z,7.60
2018-02-27T00:20:37.256Z,7.60
2018-02-27T00:23:03.533Z,7.72
2018-02-27T00:25:29.714Z,6.57
2018-02-27T00:27:55.917Z,6.90
2018-02-27T00:30:22.417Z,6.65
2018-02-27T00:32:48.615Z,6.45
2018-02-27T00:35:14.823Z,6.53
2018-02-27T00:37:41.053Z,7.35
2018-02-27T00:40:07.285Z,7.93
2018-02-27T00:42:33.486Z,7.80
2018-02-27T00:44:59.771Z,7.32
2018-02-27T00:47:25.968Z,6.22
2018-02-27T00:49:52.187Z,7.60
2018-02-27T00:52:18.437Z,7.28
2018-02-27T00:54:44.643Z,7.28
2018-02-27T00:57:10.892Z,7.25
2018-02-27T00:59:37.136Z,6.95
2018-02-27T01:02:03.349Z,7.60
2018-02-27T01:04:29.536Z,7.80
2018-02-27T01:06:57.621Z,7.30
2018-02-27T01:09:23.841Z,7.62
2018-02-27T01:11:50.055Z,7.07
2018-02-27T01:14:16.291Z,7.87
2018-02-27T01:16:42.859Z,7.25
2018-02-27T01:19:09.082Z,7.05
2018-02-27T01:21:35.319Z,6.60
2018-02-27T01:24:01.559Z,7.55
2018-02-27T01:26:27.789Z,7.22
2018-02-27T01:28:54.053Z,9.35
2018-02-27T01:31:20.265Z,7.00
2018-02-27T01:33:46.507Z,7.18
2018-02-27T01:36:12.761Z,7.80
2018-02-27T01:38:38.996Z,7.95
2018-02-27T01:41:05.216Z,8.10
2018-02-27T01:43:31.445Z,7.40
2018-02-27T01:45:57.666Z,8.55
2018-02-27T01:48:23.904Z,7.00
2018-02-27T01:51:02.344Z,7.85
2018-02-27T01:53:28.554Z,9.30
2018-02-27T01:55:54.754Z,8.50
2018-02-27T01:58:21.351Z,7.62
2018-02-27T02:00:47.583Z,7.07
2018-02-27T02:03:13.789Z,8.80
2018-02-27T02:05:40.046Z,7.80
2018-02-27T02:08:06.262Z,7.45
2018-02-27T02:10:32.446Z,7.97
2018-02-27T02:12:58.715Z,7.80
2018-02-27T02:15:24.932Z,7.32
2018-02-27T02:17:51.185Z,7.10
2018-02-27T02:20:17.442Z,7.20
2018-02-27T02:22:44.046Z,7.60
2018-02-27T02:25:10.239Z,7.20
2018-02-27T02:27:36.471Z,8.20
2018-02-27T02:30:02.711Z,8.25
2018-02-27T02:32:28.901Z,8.40
2018-02-27T02:34:55.493Z,7.37
2018-02-27T02:37:21.742Z,8.10
2018-02-27T02:39:47.966Z,8.00
2018-02-27T02:42:29.452Z,8.70
2018-02-27T02:44:55.655Z,7.60
2018-02-27T02:47:21.897Z,8.15
2018-02-27T02:49:48.132Z,8.02
2018-02-27T02:52:14.336Z,8.10
2018-02-27T02:54:40.580Z,8.65
2018-02-27T02:57:06.847Z,8.02
2018-02-27T02:59:33.392Z,8.00
2018-02-27T03:01:59.601Z,7.82
2018-02-27T03:04:26.729Z,8.68
2018-02-27T03:06:52.956Z,9.50
2018-02-27T03:09:19.178Z,8.38
2018-02-27T03:11:45.446Z,8.23
2018-02-27T03:14:11.683Z,8.13
2018-02-27T03:16:37.907Z,8.27
2018-02-27T03:19:04.172Z,8.13
2018-02-27T03:21:30.395Z,7.72
2018-02-27T03:23:56.592Z,8.65
2018-02-27T03:26:22.853Z,8.05
2018-02-27T03:28:49.081Z,7.75
2018-02-27T03:31:15.288Z,9.18
2018-02-27T03:33:41.521Z,8.25
2018-02-27T03:36:07.747Z,7.70
2018-02-27T03:38:33.994Z,8.75
2018-02-27T03:41:00.196Z,8.18
2018-02-27T03:43:26.433Z,9.20
2018-02-27T03:45:52.683Z,8.48
2018-02-27T03:48:18.917Z,9.63
2018-02-27T03:50:45.409Z,8.73
2018-02-27T03:53:11.620Z,8.30
2018-02-27T03:55:37.868Z,8.35
2018-02-27T03:58:04.071Z,7.87
2018-02-27T04:00:30.636Z,7.15
2018-02-27T04:02:56.894Z,8.20
2018-02-27T04:05:23.130Z,9.25
2018-02-27T04:07:49.344Z,8.70
2018-02-27T04:10:15.519Z,9.55
2018-02-27T04:12:42.554Z,8.35
2018-02-27T04:15:09.132Z,9.15
2018-02-27T04:17:35.344Z,8.38
2018-02-27T04:20:01.599Z,8.23
2018-02-27T04:22:27.818Z,9.07
2018-02-27T04:24:54.055Z,8.27
2018-02-27T04:27:20.291Z,8.35
2018-02-27T04:29:46.503Z,9.77
2018-02-27T04:32:12.735Z,8.73
2018-02-27T04:34:38.980Z,11.90
2018-02-27T04:37:05.224Z,8.50
2018-02-27T04:39:31.451Z,8.82
2018-02-27T04:41:57.681Z,9.32
2018-02-27T04:44:23.866Z,8.45
2018-02-27T04:46:50.127Z,10.00
2018-02-27T04:49:16.324Z,8.98
2018-02-27T04:51:42.560Z,9.40
2018-02-27T04:54:08.746Z,9.02
2018-02-27T04:56:34.958Z,9.07
2018-02-27T04:59:02.156Z,8.30
2018-02-27T05:01:28.378Z,10.52
2018-02-27T05:03:54.614Z,10.27
2018-02-27T05:06:20.837Z,8.30
2018-02-27T05:08:47.071Z,9.95
2018-02-27T05:11:13.285Z,8.80
2018-02-27T05:13:39.511Z,10.40
2018-02-27T05:16:05.729Z,8.88
2018-02-27T05:18:31.967Z,8.52
2018-02-27T05:20:58.200Z,10.52
2018-02-27T05:23:24.406Z,10.63
2018-02-27T05:25:51.010Z,10.25
2018-02-27T05:28:17.224Z,11.12
2018-02-27T05:30:43.412Z,10.50
2018-02-27T05:33:09.643Z,10.70
2018-02-27T05:35:35.879Z,9.82
2018-02-27T05:38:02.086Z,9.90
2018-02-27T05:40:28.303Z,9.15
2018-02-27T05:42:54.504Z,10.45
2018-02-27T05:45:20.725Z,10.45
2018-02-27T05:47:46.948Z,10.13
2018-02-27T05:50:13.159Z,11.18
2018-02-27T05:52:39.426Z,9.55
2018-02-27T05:55:05.616Z,10.05
2018-02-27T05:57:31.848Z,9.65
2018-02-27T05:59:58.077Z,10.25
2018-02-27T06:02:24.282Z,10.98
2018-02-27T06:04:50.513Z,11.63
2018-02-27T06:07:16.731Z,11.02
2018-02-27T06:09:42.996Z,10.00
2018-02-27T06:12:09.211Z,10.80
2018-02-27T06:14:35.437Z,11.30
2018-02-27T06:17:01.655Z,12.00
2018-02-27T06:19:27.855Z,11.90
2018-02-27T06:21:54.440Z,12.18
2018-02-27T06:24:20.686Z,11.38
2018-02-27T06:26:46.896Z,11.07
2018-02-27T06:29:13.127Z,11.85
2018-02-27T06:31:39.315Z,14.30
2018-02-27T06:34:05.547Z,11.57
2018-02-27T06:36:31.770Z,12.52
2018-02-27T06:38:57.968Z,11.98
2018-02-27T06:41:24.165Z,11.15
2018-02-27T06:43:50.410Z,11.48
2018-02-27T06:46:16.612Z,12.70
2018-02-27T06:48:42.794Z,11.82
2018-02-27T06:51:09.813Z,11.63
2018-02-27T06:53:36.044Z,13.43
2018-02-27T06:56:02.260Z,12.52
2018-02-27T06:58:28.476Z,15.35
2018-02-27T07:00:54.681Z,13.48
2018-02-27T07:03:20.925Z,12.02
2018-02-27T07:05:47.419Z,15.68
2018-02-27T07:08:13.599Z,12.65
2018-02-27T07:10:39.803Z,12.82
2018-02-27T07:13:06.082Z,11.85
2018-02-27T07:15:32.635Z,15.68
2018-02-27T07:17:58.852Z,13.45
2018-02-27T07:20:25.340Z,14.25
2018-02-27T07:22:51.580Z,13.48
2018-02-27T07:25:17.803Z,12.18
2018-02-27T07:27:44.031Z,12.77
2018-02-27T07:30:10.282Z,13.38
2018-02-27T07:32:36.506Z,14.20
2018-02-27T07:35:02.734Z,13.20
2018-02-27T07:40:01.821Z,13.55
2018-02-27T07:42:28.072Z,15.27
2018-02-27T07:44:54.347Z,13.40
2018-02-27T07:47:20.557Z,12.37
2018-02-27T07:49:47.273Z,14.27
2018-02-27T07:52:13.511Z,13.20
2018-02-27T07:54:40.154Z,13.13
2018-02-27T07:57:06.761Z,13.70
2018-02-27T07:59:32.977Z,14.52
2018-02-27T08:01:59.245Z,14.65
2018-02-27T08:04:25.857Z,14.52
2018-02-27T08:06:52.067Z,13.62
2018-02-27T08:09:18.332Z,13.43
2018-02-27T08:11:44.565Z,13.40
2018-02-27T08:14:11.613Z,14.65
2018-02-27T08:16:38.205Z,14.90
2018-02-27T08:19:04.413Z,14.85
2018-02-27T08:21:30.639Z,14.50
2018-02-27T08:23:56.868Z,13.18
2018-02-27T08:26:23.096Z,14.23
2018-02-27T08:28:49.324Z,14.50
2018-02-27T08:31:15.521Z,14.40
2018-02-27T08:33:42.137Z,16.05
2018-02-27T08:36:08.350Z,16.60
2018-02-27T08:38:34.575Z,15.18
2018-02-27T08:41:00.779Z,13.65
2018-02-27T08:43:27.017Z,13.80
2018-02-27T08:45:53.253Z,13.50
2018-02-27T08:48:19.443Z,13.82
2018-02-27T08:50:45.684Z,15.57
2018-02-27T08:53:12.277Z,17.02
2018-02-27T08:55:38.537Z,14.13
2018-02-27T08:58:04.788Z,16.20
2018-02-27T09:00:31.286Z,17.02
2018-02-27T09:02:57.860Z,19.02
2018-02-27T09:05:24.065Z,16.95
2018-02-27T09:07:50.286Z,14.95
2018-02-27T09:10:16.487Z,16.05
2018-02-27T09:12:43.047Z,14.93
2018-02-27T09:15:09.272Z,16.77
2018-02-27T09:17:35.829Z,15.32
2018-02-27T09:20:02.030Z,15.70
2018-02-27T09:22:28.617Z,14.93
2018-02-27T09:24:54.889Z,16.77
2018-02-27T09:27:21.460Z,17.85
2018-02-27T09:29:47.696Z,15.98
2018-02-27T09:32:13.932Z,16.48
2018-02-27T09:34:40.115Z,16.52
2018-02-27T09:37:06.310Z,16.50
2018-02-27T09:39:32.536Z,18.65
2018-02-27T09:41:58.769Z,17.40
2018-02-27T09:44:25.295Z,14.77
2018-02-27T09:46:51.489Z,31.73
2018-02-27T09:49:17.698Z,19.25
2018-02-27T09:51:43.974Z,16.15
2018-02-27T09:54:10.177Z,16.67
2018-02-27T09:56:36.422Z,16.25
2018-02-27T09:59:02.634Z,17.08
2018-02-27T10:01:28.980Z,16.15
2018-02-27T10:03:55.198Z,16.58
2018-02-27T10:06:21.425Z,15.82
2018-02-27T10:08:47.622Z,16.17
2018-02-27T10:11:13.821Z,16.85
2018-02-27T10:13:40.125Z,18.25
2018-02-27T10:16:06.310Z,17.50
2018-02-27T10:18:32.515Z,16.50
2018-02-27T10:20:59.179Z,17.80
2018-02-27T10:23:25.434Z,17.33
2018-02-27T10:25:51.670Z,20.02
2018-02-27T10:28:17.913Z,16.27
2018-02-27T10:30:44.128Z,17.40
2018-02-27T10:33:10.387Z,17.95
2018-02-27T10:35:36.887Z,18.75
2018-02-27T10:38:03.088Z,18.50
2018-02-27T10:40:29.324Z,18.85
2018-02-27T10:42:55.566Z,16.65
2018-02-27T10:45:21.806Z,18.37
2018-02-27T10:47:48.031Z,18.17
2018-02-27T10:50:14.247Z,18.83
2018-02-27T10:52:40.475Z,22.40
2018-02-27T10:55:06.706Z,19.48
2018-02-27T10:57:32.996Z,19.45
2018-02-27T10:59:59.260Z,18.65
2018-02-27T11:02:25.539Z,18.55
2018-02-27T11:04:51.738Z,19.90
2018-02-27T11:07:17.998Z,18.70
2018-02-27T11:09:44.211Z,18.90
2018-02-27T11:12:10.420Z,18.35
2018-02-27T11:14:36.665Z,19.55
2018-02-27T11:17:02.852Z,20.12
2018-02-27T11:19:29.083Z,19.30
2018-02-27T11:21:55.315Z,20.35
2018-02-27T11:24:21.530Z,19.60
2018-02-27T11:26:47.726Z,18.83
2018-02-27T11:29:14.297Z,19.15
2018-02-27T11:31:40.536Z,19.20
2018-02-27T11:34:06.779Z,18.80
2018-02-27T11:36:32.972Z,20.48
2018-02-27T11:38:59.486Z,20.17
2018-02-27T11:41:26.472Z,17.87
2018-02-27T11:43:52.686Z,17.40
2018-02-27T11:46:18.927Z,17.12
2018-02-27T11:48:45.137Z,19.05
2018-02-27T11:51:11.343Z,19.50
2018-02-27T11:53:37.558Z,20.00
2018-02-27T11:56:03.806Z,20.30
2018-02-27T11:58:30.041Z,20.25
2018-02-27T12:00:56.272Z,20.10
2018-02-27T12:03:22.951Z,18.25
2018-02-27T12:05:49.776Z,18.92
2018-02-27T12:08:16.040Z,19.17
2018-02-27T12:10:43.168Z,18.80
2018-02-27T12:13:09.977Z,18.87
2018-02-27T12:15:36.171Z,19.15
2018-02-27T12:18:03.188Z,17.65
2018-02-27T12:20:29.397Z,19.08
2018-02-27T12:22:55.615Z,17.30
2018-02-27T12:25:21.863Z,17.65
2018-02-27T12:27:48.089Z,16.20
2018-02-27T12:30:14.331Z,16.85
2018-02-27T12:32:40.963Z,19.10
2018-02-27T12:35:07.173Z,17.52
2018-02-27T12:37:34.084Z,17.00
2018-02-27T12:40:00.394Z,18.70
2018-02-27T12:42:27.069Z,18.17
2018-02-27T12:44:53.296Z,17.52
2018-02-27T12:47:19.837Z,18.55
2018-02-27T12:49:46.107Z,17.87
2018-02-27T12:52:12.327Z,20.23
2018-02-27T12:54:38.596Z,16.85
2018-02-27T12:57:04.865Z,17.83
2018-02-27T12:59:31.124Z,18.52
2018-02-27T13:01:57.410Z,16.42
2018-02-27T13:04:23.605Z,17.08
2018-02-27T13:06:49.840Z,16.73
2018-02-27T13:09:16.093Z,16.83
2018-02-27T13:11:42.375Z,18.77
2018-02-27T13:14:08.585Z,17.52
2018-02-27T13:16:34.867Z,18.40
2018-02-27T13:19:01.094Z,18.80
2018-02-27T13:21:27.340Z,17.23
2018-02-27T13:23:53.620Z,16.83
2018-02-27T13:26:20.271Z,17.17
2018-02-27T13:28:46.502Z,15.77
2018-02-27T13:31:19.648Z,17.10
2018-02-27T13:33:45.930Z,17.87
2018-02-27T13:36:12.346Z,18.23
2018-02-27T13:38:38.566Z,19.02
2018-02-27T13:41:05.193Z,18.52
2018-02-27T13:43:31.797Z,18.10
2018-02-27T13:45:58.008Z,19.58
2018-02-27T13:48:24.499Z,19.10
2018-02-27T13:50:51.118Z,15.85
2018-02-27T13:53:18.207Z,17.42
2018-02-27T13:55:44.478Z,17.75
2018-02-27T13:58:10.704Z,18.08
2018-02-27T14:00:36.915Z,17.15
2018-02-27T14:03:03.203Z,17.40
2018-02-27T14:05:29.826Z,17.37
2018-02-27T14:07:56.050Z,18.17
2018-02-27T14:10:22.298Z,16.73
2018-02-27T14:12:48.942Z,18.48
2018-02-27T14:15:15.597Z,18.92
2018-02-27T14:17:41.810Z,18.87
2018-02-27T14:20:08.441Z,17.85
2018-02-27T14:22:35.073Z,18.50
2018-02-27T14:25:01.745Z,18.08
2018-02-27T14:27:28.008Z,17.80
2018-02-27T14:29:54.255Z,17.35
2018-02-27T14:32:20.487Z,17.98
2018-02-27T14:34:46.708Z,18.02
2018-02-27T14:37:12.964Z,17.67
2018-02-27T14:39:39.733Z,20.10
2018-02-27T14:42:05.961Z,18.67
2018-02-27T14:44:32.212Z,17.87
2018-02-27T14:46:58.448Z,17.37
2018-02-27T14:49:25.484Z,17.65
2018-02-27T14:51:51.734Z,16.45
2018-02-27T14:54:17.969Z,17.55
2018-02-27T14:56:44.182Z,18.58
2018-02-27T14:59:10.440Z,17.35
2018-02-27T15:01:36.732Z,17.30
2018-02-27T15:04:02.970Z,17.95
2018-02-27T15:06:29.218Z,19.15
2018-02-27T15:08:55.820Z,18.08
2018-02-27T15:11:22.078Z,18.90
2018-02-27T15:13:48.336Z,18.70
2018-02-27T15:16:14.609Z,17.35
2018-02-27T15:18:40.825Z,19.42
2018-02-27T15:21:07.088Z,17.58
2018-02-27T15:23:33.316Z,18.83
2018-02-27T15:25:59.593Z,18.70
2018-02-27T15:28:25.840Z,19.17
2018-02-27T15:30:52.103Z,17.90
2018-02-27T15:33:18.341Z,17.90
2018-02-27T15:35:44.957Z,18.55
2018-02-27T15:38:11.205Z,17.58
2018-02-27T15:40:37.799Z,17.65
2018-02-27T15:43:04.084Z,17.40
2018-02-27T15:45:30.374Z,17.12
2018-02-27T15:47:56.599Z,17.60
2018-02-27T15:50:22.824Z,17.42
2018-02-27T15:52:49.125Z,18.02
2018-02-27T15:55:15.395Z,17.87
2018-02-27T15:57:41.647Z,17.25
2018-02-27T16:00:08.297Z,17.42
2018-02-27T16:02:34.917Z,17.67
2018-02-27T16:05:01.528Z,17.37
2018-02-27T16:07:28.172Z,16.87
2018-02-27T16:09:54.434Z,17.12
2018-02-27T16:12:21.062Z,17.05
2018-02-27T16:14:47.695Z,15.55
2018-02-27T16:17:13.908Z,18.83
2018-02-27T16:19:40.136Z,17.40
2018-02-27T16:22:06.720Z,17.55
2018-02-27T16:24:32.971Z,18.75
2018-02-27T16:26:59.235Z,17.15
2018-02-27T16:29:26.012Z,18.77
2018-02-27T16:31:52.251Z,16.95
2018-02-27T16:34:18.501Z,16.85
2018-02-27T16:36:44.776Z,17.33
2018-02-27T16:39:11.361Z,17.00
2018-02-27T16:41:37.600Z,18.12
2018-02-27T16:44:03.880Z,16.27
2018-02-27T16:46:30.114Z,15.85
2018-02-27T16:48:56.380Z,18.02
2018-02-27T16:51:22.615Z,18.25
2018-02-27T16:53:48.817Z,17.12
2018-02-27T16:56:15.029Z,16.95
2018-02-27T16:58:41.250Z,17.10
2018-02-27T17:01:07.466Z,17.80
2018-02-27T17:03:34.119Z,21.10
2018-02-27T17:06:00.370Z,23.00
2018-02-27T17:08:26.578Z,22.80
2018-02-27T17:10:53.000Z,23.40
2018-02-27T17:13:19.511Z,23.85
2018-02-27T17:15:45.741Z,20.35
2018-02-27T17:18:11.976Z,17.70
2018-02-27T17:20:38.231Z,18.85
2018-02-27T17:23:04.434Z,18.95
2018-02-27T17:25:31.026Z,19.48
2018-02-27T17:27:57.266Z,19.73
2018-02-27T17:30:23.554Z,17.00
2018-02-27T17:32:49.899Z,18.30
2018-02-27T17:35:16.163Z,17.95
2018-02-27T17:37:42.410Z,15.85
2018-02-27T17:40:08.599Z,16.37
2018-02-27T17:42:35.518Z,17.75
2018-02-27T17:45:01.829Z,18.85
2018-02-27T17:47:28.468Z,16.92
2018-02-27T17:49:55.096Z,17.80
2018-02-27T17:52:21.725Z,18.00
2018-02-27T17:54:48.367Z,16.20
2018-02-27T17:57:15.015Z,18.35
2018-02-27T17:59:49.043Z,15.77
2018-02-27T18:02:15.284Z,17.23
2018-02-27T18:04:41.568Z,17.85
2018-02-27T18:07:07.843Z,17.15
2018-02-27T18:09:34.072Z,18.75
2018-02-27T18:12:00.337Z,17.95
2018-02-27T18:14:26.566Z,17.15
2018-02-27T18:16:52.760Z,14.55
2018-02-27T18:19:19.032Z,15.07
2018-02-27T18:21:45.246Z,14.18
2018-02-27T18:24:11.448Z,14.95
2018-02-27T18:26:37.714Z,16.70
2018-02-27T18:29:03.948Z,17.05
2018-02-27T18:31:30.179Z,16.83
2018-02-27T18:33:56.839Z,16.30
2018-02-27T18:36:23.184Z,15.88
2018-02-27T18:38:49.473Z,15.05
2018-02-27T18:41:15.812Z,15.10
2018-02-27T18:43:42.625Z,17.25
2018-02-27T18:46:08.922Z,15.80
2018-02-27T18:48:35.535Z,15.15
2018-02-27T18:51:01.860Z,13.68
2018-02-27T18:53:28.139Z,15.23
2018-02-27T18:55:54.460Z,15.50
2018-02-27T18:58:20.777Z,15.13
2018-02-27T19:00:47.217Z,16.95
2018-02-27T19:03:13.593Z,18.00
2018-02-27T19:05:40.025Z,19.85
2018-02-27T19:08:06.389Z,22.10
2018-02-27T19:10:32.728Z,17.45
2018-02-27T19:12:59.045Z,16.10
2018-02-27T19:15:25.851Z,17.48
2018-02-27T19:17:52.246Z,15.90
2018-02-27T19:20:18.569Z,17.60
2018-02-27T19:22:44.902Z,17.80
2018-02-27T19:25:11.253Z,15.40
2018-02-27T19:27:37.878Z,16.70
2018-02-27T19:30:04.256Z,16.73
2018-02-27T19:32:31.038Z,16.87
2018-02-27T19:34:57.337Z,15.77
2018-02-27T19:37:24.271Z,16.08
2018-02-27T19:39:50.626Z,16.90
2018-02-27T19:42:16.999Z,17.30
2018-02-27T19:44:43.277Z,16.15
2018-02-27T19:47:09.621Z,17.73
2018-02-27T19:49:35.919Z,18.60
2018-02-27T19:52:02.197Z,17.17
2018-02-27T19:54:28.480Z,17.45
2018-02-27T19:56:54.830Z,14.65
2018-02-27T19:59:21.609Z,16.08
2018-02-27T20:01:48.911Z,16.75
2018-02-27T20:04:15.628Z,16.58
2018-02-27T20:06:42.067Z,15.95
2018-02-27T20:09:08.353Z,15.90
2018-02-27T20:11:34.744Z,16.48
2018-02-27T20:14:01.165Z,16.60
2018-02-27T20:16:27.419Z,15.52
2018-02-27T20:18:53.840Z,15.80
2018-02-27T20:21:21.176Z,14.32
2018-02-27T20:23:54.149Z,16.12
2018-02-27T20:26:20.921Z,16.98
2018-02-27T20:28:53.652Z,18.10
2018-02-27T20:31:20.082Z,15.00
2018-02-27T20:33:46.525Z,15.65
2018-02-27T20:36:12.864Z,15.40
2018-02-27T20:38:45.352Z,15.75
2018-02-27T20:41:11.686Z,16.37
2018-02-27T20:43:38.756Z,17.15
2018-02-27T20:46:05.157Z,20.12
2018-02-27T20:48:31.533Z,18.98
2018-02-27T20:50:57.894Z,19.75
2018-02-27T20:53:24.249Z,26.67
2018-02-27T20:55:50.606Z,26.23
2018-02-27T20:58:17.790Z,26.08
2018-02-27T21:00:44.131Z,20.75
2018-02-27T21:03:10.517Z,20.55
2018-02-27T21:05:37.199Z,23.75
2018-02-27T21:08:03.682Z,27.85
2018-02-27T21:10:30.214Z,17.02
2018-02-27T21:12:56.464Z,15.63
2018-02-27T21:15:22.804Z,15.65
2018-02-27T21:17:49.068Z,18.62
2018-02-27T21:20:15.340Z,21.67
2018-02-27T21:22:41.591Z,18.15
2018-02-27T21:25:07.873Z,30.55
2018-02-27T21:27:34.103Z,32.33
2018-02-27T21:30:00.362Z,31.80
2018-02-27T21:32:26.939Z,35.53
2018-02-27T21:34:53.213Z,30.70
2018-02-27T21:37:19.812Z,21.27
2018-02-27T21:39:46.094Z,18.73
2018-02-27T21:42:12.680Z,17.67
2018-02-27T21:44:38.994Z,16.17
2018-02-27T21:47:05.298Z,17.08
2018-02-27T21:49:31.540Z,18.20
2018-02-27T21:51:57.739Z,17.17
2018-02-27T21:54:23.979Z,18.75
2018-02-27T21:56:50.170Z,16.25
2018-02-27T21:59:16.423Z,18.37
2018-02-27T22:01:43.046Z,17.73
2018-02-27T22:04:09.308Z,15.70
2018-02-27T22:06:35.600Z,16.87
2018-02-27T22:09:01.862Z,18.42
2018-02-27T22:11:28.087Z,18.48
2018-02-27T22:13:55.112Z,16.10
2018-02-27T22:16:21.727Z,15.35
2018-02-27T22:18:47.991Z,17.23
2018-02-27T22:21:14.239Z,17.92
2018-02-27T22:23:40.452Z,16.20
2018-02-27T22:26:07.061Z,17.20
2018-02-27T22:28:33.261Z,18.77
2018-02-27T22:30:59.486Z,17.58
2018-02-27T22:33:26.360Z,18.05
2018-02-27T22:35:52.610Z,17.08
2018-02-27T22:38:19.193Z,16.85
2018-02-27T22:40:45.431Z,16.83
2018-02-27T22:43:11.611Z,18.45
2018-02-27T22:45:37.860Z,18.08
2018-02-27T22:48:04.401Z,18.70
2018-02-27T22:50:30.598Z,18.50
2018-02-27T22:52:56.811Z,18.10
2018-02-27T22:55:23.428Z,21.70
2018-02-27T22:57:49.658Z,21.00
2018-02-27T23:00:28.101Z,21.35
2018-02-27T23:02:54.681Z,20.67
2018-02-27T23:05:20.899Z,18.75
2018-02-27T23:07:47.155Z,19.60
2018-02-27T23:10:13.398Z,19.70
2018-02-27T23:12:39.931Z,19.27
2018-02-27T23:15:06.142Z,18.05
2018-02-27T23:17:32.368Z,20.15
2018-02-27T23:19:58.583Z,18.40
2018-02-27T23:22:24.798Z,18.67
2018-02-27T23:24:56.655Z,18.87
2018-02-27T23:27:25.075Z,19.27
2018-02-27T23:29:53.440Z,19.37
2018-02-27T23:32:21.982Z,21.17
2018-02-27T23:35:00.864Z,18.27
2018-02-27T23:37:27.079Z,20.40
2018-02-27T23:39:53.308Z,20.08
2018-02-27T23:42:19.541Z,20.00
2018-02-27T23:44:45.739Z,19.50
2018-02-27T23:47:11.972Z,19.35
2018-02-27T23:49:38.740Z,18.87
2018-02-27T23:52:04.974Z,19.17
2018-02-27T23:54:31.167Z,19.27
2018-02-27T23:56:57.653Z,20.45
2018-02-27T23:59:24.277Z,20.98
